sensor_id;sensor_type;location;lat;lon;timestamp;temperature;humidity
48515;DHT22;34309;47.260;2.796;2024-02-14T00:02:00;19.40;24.70
48515;DHT22;34309;47.260;2.796;2024-02-14T00:04:34;19.40;24.50
48515;DHT22;34309;47.260;2.796;2024-02-14T00:07:09;19.40;24.40
48515;DHT22;34309;47.260;2.796;2024-02-14T00:09:43;19.40;24.60
48515;DHT22;34309;47.260;2.796;2024-02-14T00:12:17;19.40;24.30
48515;DHT22;34309;47.260;2.796;2024-02-14T00:14:51;19.40;24.40
48515;DHT22;34309;47.260;2.796;2024-02-14T00:17:25;19.40;24.50
48515;DHT22;34309;47.260;2.796;2024-02-14T00:19:59;19.40;24.60
48515;DHT22;34309;47.260;2.796;2024-02-14T00:22:34;19.40;24.50
48515;DHT22;34309;47.260;2.796;2024-02-14T00:25:08;19.40;24.70
48515;DHT22;34309;47.260;2.796;2024-02-14T00:27:43;19.40;24.60
48515;DHT22;34309;47.260;2.796;2024-02-14T00:30:17;19.40;24.60
48515;DHT22;34309;47.260;2.796;2024-02-14T00:32:51;19.40;24.60
48515;DHT22;34309;47.260;2.796;2024-02-14T00:35:26;19.40;24.70
48515;DHT22;34309;47.260;2.796;2024-02-14T00:38:01;19.40;24.70
48515;DHT22;34309;47.260;2.796;2024-02-14T00:40:35;19.40;24.60
48515;DHT22;34309;47.260;2.796;2024-02-14T00:46:31;19.40;24.60
48515;DHT22;34309;47.260;2.796;2024-02-14T00:49:04;19.40;24.50
48515;DHT22;34309;47.260;2.796;2024-02-14T00:51:38;19.40;24.80
48515;DHT22;34309;47.260;2.796;2024-02-14T00:54:13;19.40;24.80
48515;DHT22;34309;47.260;2.796;2024-02-14T00:56:47;19.30;25.20
48515;DHT22;34309;47.260;2.796;2024-02-14T00:59:21;19.30;24.70
48515;DHT22;34309;47.260;2.796;2024-02-14T01:01:55;19.30;24.80
48515;DHT22;34309;47.260;2.796;2024-02-14T01:04:29;19.30;24.50
48515;DHT22;34309;47.260;2.796;2024-02-14T01:07:03;19.30;24.70
48515;DHT22;34309;47.260;2.796;2024-02-14T01:09:39;19.30;24.60
48515;DHT22;34309;47.260;2.796;2024-02-14T01:12:13;19.30;24.70
48515;DHT22;34309;47.260;2.796;2024-02-14T01:14:47;19.30;24.80
48515;DHT22;34309;47.260;2.796;2024-02-14T01:17:21;19.30;24.80
48515;DHT22;34309;47.260;2.796;2024-02-14T01:19:55;19.30;24.80
48515;DHT22;34309;47.260;2.796;2024-02-14T01:22:30;19.30;24.80
48515;DHT22;34309;47.260;2.796;2024-02-14T01:25:06;19.30;24.80
48515;DHT22;34309;47.260;2.796;2024-02-14T01:27:43;19.30;24.80
48515;DHT22;34309;47.260;2.796;2024-02-14T01:30:17;19.30;25.40
48515;DHT22;34309;47.260;2.796;2024-02-14T01:32:51;19.30;24.80
48515;DHT22;34309;47.260;2.796;2024-02-14T01:35:25;19.30;24.80
48515;DHT22;34309;47.260;2.796;2024-02-14T01:38:00;19.30;24.80
48515;DHT22;34309;47.260;2.796;2024-02-14T01:40:36;19.30;24.80
48515;DHT22;34309;47.260;2.796;2024-02-14T01:43:10;19.30;24.90
48515;DHT22;34309;47.260;2.796;2024-02-14T01:45:46;19.30;24.80
48515;DHT22;34309;47.260;2.796;2024-02-14T01:48:20;19.30;24.80
48515;DHT22;34309;47.260;2.796;2024-02-14T01:50:54;19.30;24.80
48515;DHT22;34309;47.260;2.796;2024-02-14T01:53:29;19.30;24.80
48515;DHT22;34309;47.260;2.796;2024-02-14T01:56:06;19.20;24.80
48515;DHT22;34309;47.260;2.796;2024-02-14T01:58:40;19.30;24.80
48515;DHT22;34309;47.260;2.796;2024-02-14T02:01:13;19.30;24.90
48515;DHT22;34309;47.260;2.796;2024-02-14T02:03:49;19.30;24.80
48515;DHT22;34309;47.260;2.796;2024-02-14T02:06:23;19.20;24.80
48515;DHT22;34309;47.260;2.796;2024-02-14T02:08:59;19.20;24.80
48515;DHT22;34309;47.260;2.796;2024-02-14T02:11:45;19.20;24.80
48515;DHT22;34309;47.260;2.796;2024-02-14T02:14:20;19.20;24.80
48515;DHT22;34309;47.260;2.796;2024-02-14T02:16:54;19.20;24.80
48515;DHT22;34309;47.260;2.796;2024-02-14T02:19:29;19.20;24.80
48515;DHT22;34309;47.260;2.796;2024-02-14T02:22:05;19.20;24.80
48515;DHT22;34309;47.260;2.796;2024-02-14T02:24:41;19.20;24.80
48515;DHT22;34309;47.260;2.796;2024-02-14T02:27:15;19.20;24.80
48515;DHT22;34309;47.260;2.796;2024-02-14T02:29:49;19.20;24.80
48515;DHT22;34309;47.260;2.796;2024-02-14T02:32:23;19.20;24.80
48515;DHT22;34309;47.260;2.796;2024-02-14T02:34:57;19.20;24.80
48515;DHT22;34309;47.260;2.796;2024-02-14T02:37:31;19.20;24.80
48515;DHT22;34309;47.260;2.796;2024-02-14T02:40:08;19.20;24.80
48515;DHT22;34309;47.260;2.796;2024-02-14T02:42:42;19.20;24.80
48515;DHT22;34309;47.260;2.796;2024-02-14T02:45:17;19.20;24.80
48515;DHT22;34309;47.260;2.796;2024-02-14T02:47:51;19.20;24.80
48515;DHT22;34309;47.260;2.796;2024-02-14T02:50:25;19.20;24.80
48515;DHT22;34309;47.260;2.796;2024-02-14T02:52:59;19.20;24.80
48515;DHT22;34309;47.260;2.796;2024-02-14T02:55:35;19.20;24.80
48515;DHT22;34309;47.260;2.796;2024-02-14T02:58:09;19.20;24.80
48515;DHT22;34309;47.260;2.796;2024-02-14T03:00:43;19.20;24.80
48515;DHT22;34309;47.260;2.796;2024-02-14T03:03:17;19.20;24.80
48515;DHT22;34309;47.260;2.796;2024-02-14T03:05:50;19.20;24.80
48515;DHT22;34309;47.260;2.796;2024-02-14T03:08:26;19.20;24.80
48515;DHT22;34309;47.260;2.796;2024-02-14T03:11:04;19.20;24.80
48515;DHT22;34309;47.260;2.796;2024-02-14T03:13:38;19.20;24.80
48515;DHT22;34309;47.260;2.796;2024-02-14T03:16:13;19.20;24.80
48515;DHT22;34309;47.260;2.796;2024-02-14T03:18:47;19.20;24.80
48515;DHT22;34309;47.260;2.796;2024-02-14T03:21:20;19.20;24.80
48515;DHT22;34309;47.260;2.796;2024-02-14T03:23:54;19.20;24.80
48515;DHT22;34309;47.260;2.796;2024-02-14T03:26:30;19.20;24.80
48515;DHT22;34309;47.260;2.796;2024-02-14T03:29:05;19.20;24.80
48515;DHT22;34309;47.260;2.796;2024-02-14T03:31:40;19.20;24.80
48515;DHT22;34309;47.260;2.796;2024-02-14T03:34:15;19.20;24.80
48515;DHT22;34309;47.260;2.796;2024-02-14T03:36:51;19.20;24.80
48515;DHT22;34309;47.260;2.796;2024-02-14T03:39:27;19.20;24.80
48515;DHT22;34309;47.260;2.796;2024-02-14T03:42:03;19.20;24.80
48515;DHT22;34309;47.260;2.796;2024-02-14T03:44:39;19.20;24.80
48515;DHT22;34309;47.260;2.796;2024-02-14T03:47:13;19.20;24.80
48515;DHT22;34309;47.260;2.796;2024-02-14T03:49:47;19.20;24.80
48515;DHT22;34309;47.260;2.796;2024-02-14T03:52:21;19.20;24.80
48515;DHT22;34309;47.260;2.796;2024-02-14T03:54:55;19.20;25.30
48515;DHT22;34309;47.260;2.796;2024-02-14T03:57:30;19.20;24.80
48515;DHT22;34309;47.260;2.796;2024-02-14T04:00:08;19.20;24.80
48515;DHT22;34309;47.260;2.796;2024-02-14T04:02:42;19.20;24.80
48515;DHT22;34309;47.260;2.796;2024-02-14T04:05:17;19.20;24.80
48515;DHT22;34309;47.260;2.796;2024-02-14T04:07:51;19.20;24.80
48515;DHT22;34309;47.260;2.796;2024-02-14T04:10:26;19.20;24.80
48515;DHT22;34309;47.260;2.796;2024-02-14T04:13:02;19.20;25.30
48515;DHT22;34309;47.260;2.796;2024-02-14T04:15:36;19.20;24.80
48515;DHT22;34309;47.260;2.796;2024-02-14T04:18:09;19.20;24.80
48515;DHT22;34309;47.260;2.796;2024-02-14T04:20:43;19.20;24.80
48515;DHT22;34309;47.260;2.796;2024-02-14T04:23:16;19.20;24.80
48515;DHT22;34309;47.260;2.796;2024-02-14T04:25:51;19.20;24.80
48515;DHT22;34309;47.260;2.796;2024-02-14T04:28:26;19.20;24.80
48515;DHT22;34309;47.260;2.796;2024-02-14T04:30:59;19.20;24.80
48515;DHT22;34309;47.260;2.796;2024-02-14T04:33:33;19.30;24.80
48515;DHT22;34309;47.260;2.796;2024-02-14T04:36:07;19.30;24.90
48515;DHT22;34309;47.260;2.796;2024-02-14T04:38:41;19.30;24.80
48515;DHT22;34309;47.260;2.796;2024-02-14T04:41:14;19.30;24.80
48515;DHT22;34309;47.260;2.796;2024-02-14T04:43:49;19.30;25.40
48515;DHT22;34309;47.260;2.796;2024-02-14T04:46:23;19.30;24.80
48515;DHT22;34309;47.260;2.796;2024-02-14T04:48:58;19.20;24.80
48515;DHT22;34309;47.260;2.796;2024-02-14T04:51:32;19.20;24.80
48515;DHT22;34309;47.260;2.796;2024-02-14T04:54:06;19.30;24.80
48515;DHT22;34309;47.260;2.796;2024-02-14T04:56:40;19.30;24.80
48515;DHT22;34309;47.260;2.796;2024-02-14T04:59:16;19.30;24.80
48515;DHT22;34309;47.260;2.796;2024-02-14T05:01:50;19.30;24.80
48515;DHT22;34309;47.260;2.796;2024-02-14T05:04:19;19.30;24.80
48515;DHT22;34309;47.260;2.796;2024-02-14T05:06:53;19.30;24.80
48515;DHT22;34309;47.260;2.796;2024-02-14T05:09:27;19.30;24.80
48515;DHT22;34309;47.260;2.796;2024-02-14T05:12:01;19.30;24.90
48515;DHT22;34309;47.260;2.796;2024-02-14T05:14:39;19.30;24.80
48515;DHT22;34309;47.260;2.796;2024-02-14T05:17:12;19.30;24.80
48515;DHT22;34309;47.260;2.796;2024-02-14T05:19:46;19.30;24.80
48515;DHT22;34309;47.260;2.796;2024-02-14T05:22:20;19.30;24.80
48515;DHT22;34309;47.260;2.796;2024-02-14T05:24:54;19.30;24.80
48515;DHT22;34309;47.260;2.796;2024-02-14T05:27:28;19.30;24.80
48515;DHT22;34309;47.260;2.796;2024-02-14T05:30:03;19.30;24.80
48515;DHT22;34309;47.260;2.796;2024-02-14T05:32:37;19.30;24.80
48515;DHT22;34309;47.260;2.796;2024-02-14T05:35:11;19.30;24.80
48515;DHT22;34309;47.260;2.796;2024-02-14T05:37:45;19.30;24.90
48515;DHT22;34309;47.260;2.796;2024-02-14T05:40:21;19.30;24.80
48515;DHT22;34309;47.260;2.796;2024-02-14T05:42:56;19.30;24.90
48515;DHT22;34309;47.260;2.796;2024-02-14T05:45:32;19.30;24.80
48515;DHT22;34309;47.260;2.796;2024-02-14T05:48:06;19.30;24.80
48515;DHT22;34309;47.260;2.796;2024-02-14T05:50:40;19.30;24.80
48515;DHT22;34309;47.260;2.796;2024-02-14T05:53:14;19.30;24.80
48515;DHT22;34309;47.260;2.796;2024-02-14T05:55:51;19.30;24.80
48515;DHT22;34309;47.260;2.796;2024-02-14T05:58:25;19.30;24.90
48515;DHT22;34309;47.260;2.796;2024-02-14T06:01:02;19.30;24.80
48515;DHT22;34309;47.260;2.796;2024-02-14T06:03:35;19.30;24.80
48515;DHT22;34309;47.260;2.796;2024-02-14T06:06:09;19.30;24.80
48515;DHT22;34309;47.260;2.796;2024-02-14T06:08:43;19.30;24.80
48515;DHT22;34309;47.260;2.796;2024-02-14T06:11:17;19.30;24.80
48515;DHT22;34309;47.260;2.796;2024-02-14T06:13:53;19.30;24.80
48515;DHT22;34309;47.260;2.796;2024-02-14T06:16:28;19.30;24.80
48515;DHT22;34309;47.260;2.796;2024-02-14T06:19:03;19.30;24.80
48515;DHT22;34309;47.260;2.796;2024-02-14T06:21:38;19.30;24.80
48515;DHT22;34309;47.260;2.796;2024-02-14T06:24:06;19.30;24.80
48515;DHT22;34309;47.260;2.796;2024-02-14T06:26:42;19.30;24.80
48515;DHT22;34309;47.260;2.796;2024-02-14T06:29:16;19.30;24.80
48515;DHT22;34309;47.260;2.796;2024-02-14T06:31:51;19.30;24.80
48515;DHT22;34309;47.260;2.796;2024-02-14T06:34:25;19.30;24.80
48515;DHT22;34309;47.260;2.796;2024-02-14T06:37:00;19.30;24.80
48515;DHT22;34309;47.260;2.796;2024-02-14T06:39:37;19.30;24.80
48515;DHT22;34309;47.260;2.796;2024-02-14T06:42:13;19.30;24.80
48515;DHT22;34309;47.260;2.796;2024-02-14T06:44:47;19.30;24.80
48515;DHT22;34309;47.260;2.796;2024-02-14T06:47:23;19.30;24.80
48515;DHT22;34309;47.260;2.796;2024-02-14T06:50:01;19.30;24.80
48515;DHT22;34309;47.260;2.796;2024-02-14T06:52:35;19.30;24.80
48515;DHT22;34309;47.260;2.796;2024-02-14T06:55:09;19.20;24.80
48515;DHT22;34309;47.260;2.796;2024-02-14T06:57:43;19.30;24.80
48515;DHT22;34309;47.260;2.796;2024-02-14T07:00:17;19.30;24.80
48515;DHT22;34309;47.260;2.796;2024-02-14T07:02:53;19.30;24.80
48515;DHT22;34309;47.260;2.796;2024-02-14T07:05:27;19.20;24.80
48515;DHT22;34309;47.260;2.796;2024-02-14T07:08:01;19.30;24.80
48515;DHT22;34309;47.260;2.796;2024-02-14T07:10:35;19.30;24.80
48515;DHT22;34309;47.260;2.796;2024-02-14T07:13:08;19.30;24.80
48515;DHT22;34309;47.260;2.796;2024-02-14T07:15:37;19.30;24.80
48515;DHT22;34309;47.260;2.796;2024-02-14T07:18:12;19.30;24.80
48515;DHT22;34309;47.260;2.796;2024-02-14T07:20:46;19.30;24.80
48515;DHT22;34309;47.260;2.796;2024-02-14T07:23:20;19.20;24.80
48515;DHT22;34309;47.260;2.796;2024-02-14T07:25:55;19.30;24.80
48515;DHT22;34309;47.260;2.796;2024-02-14T07:28:29;19.30;24.80
48515;DHT22;34309;47.260;2.796;2024-02-14T07:30:59;19.20;24.80
48515;DHT22;34309;47.260;2.796;2024-02-14T07:33:34;19.20;24.80
48515;DHT22;34309;47.260;2.796;2024-02-14T07:36:08;19.30;24.80
48515;DHT22;34309;47.260;2.796;2024-02-14T07:38:42;19.20;24.80
48515;DHT22;34309;47.260;2.796;2024-02-14T07:41:16;19.20;24.80
48515;DHT22;34309;47.260;2.796;2024-02-14T07:43:50;19.20;24.80
48515;DHT22;34309;47.260;2.796;2024-02-14T07:46:24;19.20;24.80
48515;DHT22;34309;47.260;2.796;2024-02-14T07:49:01;19.20;24.80
48515;DHT22;34309;47.260;2.796;2024-02-14T07:51:34;19.20;24.80
48515;DHT22;34309;47.260;2.796;2024-02-14T07:54:09;19.20;24.80
48515;DHT22;34309;47.260;2.796;2024-02-14T07:56:43;19.20;24.80
48515;DHT22;34309;47.260;2.796;2024-02-14T07:59:18;19.20;24.80
48515;DHT22;34309;47.260;2.796;2024-02-14T08:01:47;19.20;24.80
48515;DHT22;34309;47.260;2.796;2024-02-14T08:04:23;19.20;24.90
48515;DHT22;34309;47.260;2.796;2024-02-14T08:06:56;19.20;24.80
48515;DHT22;34309;47.260;2.796;2024-02-14T08:09:30;19.20;24.80
48515;DHT22;34309;47.260;2.796;2024-02-14T08:12:04;19.20;25.00
48515;DHT22;34309;47.260;2.796;2024-02-14T08:14:38;19.20;24.80
48515;DHT22;34309;47.260;2.796;2024-02-14T08:17:11;19.20;24.80
48515;DHT22;34309;47.260;2.796;2024-02-14T08:19:47;19.20;24.80
48515;DHT22;34309;47.260;2.796;2024-02-14T08:22:20;19.20;24.80
48515;DHT22;34309;47.260;2.796;2024-02-14T08:24:54;19.20;24.80
48515;DHT22;34309;47.260;2.796;2024-02-14T08:27:28;19.20;24.80
48515;DHT22;34309;47.260;2.796;2024-02-14T08:30:04;19.20;24.80
48515;DHT22;34309;47.260;2.796;2024-02-14T08:32:38;19.20;24.80
48515;DHT22;34309;47.260;2.796;2024-02-14T08:35:13;19.20;24.80
48515;DHT22;34309;47.260;2.796;2024-02-14T08:37:47;19.20;24.80
48515;DHT22;34309;47.260;2.796;2024-02-14T08:40:20;19.20;24.80
48515;DHT22;34309;47.260;2.796;2024-02-14T08:42:53;19.20;24.80
48515;DHT22;34309;47.260;2.796;2024-02-14T08:45:27;19.20;24.80
48515;DHT22;34309;47.260;2.796;2024-02-14T08:48:02;19.20;24.80
48515;DHT22;34309;47.260;2.796;2024-02-14T08:50:37;19.20;24.80
48515;DHT22;34309;47.260;2.796;2024-02-14T08:53:11;19.20;24.80
48515;DHT22;34309;47.260;2.796;2024-02-14T08:55:45;19.20;24.80
48515;DHT22;34309;47.260;2.796;2024-02-14T08:58:19;19.20;24.80
48515;DHT22;34309;47.260;2.796;2024-02-14T09:00:54;19.20;24.80
48515;DHT22;34309;47.260;2.796;2024-02-14T09:03:28;19.20;24.80
48515;DHT22;34309;47.260;2.796;2024-02-14T09:06:05;19.20;24.80
48515;DHT22;34309;47.260;2.796;2024-02-14T09:08:39;19.20;24.80
48515;DHT22;34309;47.260;2.796;2024-02-14T09:11:13;19.20;25.00
48515;DHT22;34309;47.260;2.796;2024-02-14T09:13:47;19.20;25.10
48515;DHT22;34309;47.260;2.796;2024-02-14T09:16:18;19.20;24.90
48515;DHT22;34309;47.260;2.796;2024-02-14T09:18:54;19.20;25.00
48515;DHT22;34309;47.260;2.796;2024-02-14T09:21:29;19.20;24.90
48515;DHT22;34309;47.260;2.796;2024-02-14T09:24:06;19.20;25.00
48515;DHT22;34309;47.260;2.796;2024-02-14T09:26:39;19.20;25.10
48515;DHT22;34309;47.260;2.796;2024-02-14T09:29:15;19.20;25.20
48515;DHT22;34309;47.260;2.796;2024-02-14T09:31:50;19.20;24.90
48515;DHT22;34309;47.260;2.796;2024-02-14T09:34:24;19.10;25.20
48515;DHT22;34309;47.260;2.796;2024-02-14T09:37:01;19.10;25.40
48515;DHT22;34309;47.260;2.796;2024-02-14T09:39:35;19.10;25.30
48515;DHT22;34309;47.260;2.796;2024-02-14T09:42:13;19.10;25.20
48515;DHT22;34309;47.260;2.796;2024-02-14T09:44:48;19.10;25.30
48515;DHT22;34309;47.260;2.796;2024-02-14T09:47:25;19.10;25.40
48515;DHT22;34309;47.260;2.796;2024-02-14T09:50:00;19.20;25.40
48515;DHT22;34309;47.260;2.796;2024-02-14T09:52:37;19.20;25.40
48515;DHT22;34309;47.260;2.796;2024-02-14T09:55:11;19.20;25.30
48515;DHT22;34309;47.260;2.796;2024-02-14T09:57:47;19.10;25.30
48515;DHT22;34309;47.260;2.796;2024-02-14T10:00:22;19.20;25.40
48515;DHT22;34309;47.260;2.796;2024-02-14T10:02:58;19.10;25.30
48515;DHT22;34309;47.260;2.796;2024-02-14T10:05:32;19.10;25.30
48515;DHT22;34309;47.260;2.796;2024-02-14T10:08:08;19.20;25.40
48515;DHT22;34309;47.260;2.796;2024-02-14T10:10:44;19.20;25.30
48515;DHT22;34309;47.260;2.796;2024-02-14T10:13:18;19.20;25.40
48515;DHT22;34309;47.260;2.796;2024-02-14T10:15:52;19.20;25.40
48515;DHT22;34309;47.260;2.796;2024-02-14T10:18:26;19.10;25.40
48515;DHT22;34309;47.260;2.796;2024-02-14T10:21:01;19.10;25.40
48515;DHT22;34309;47.260;2.796;2024-02-14T10:23:39;19.20;25.40
48515;DHT22;34309;47.260;2.796;2024-02-14T10:26:14;19.10;25.40
48515;DHT22;34309;47.260;2.796;2024-02-14T10:28:48;19.10;25.50
48515;DHT22;34309;47.260;2.796;2024-02-14T10:31:25;19.10;25.50
48515;DHT22;34309;47.260;2.796;2024-02-14T10:33:59;19.10;25.40
48515;DHT22;34309;47.260;2.796;2024-02-14T10:36:34;19.10;25.50
48515;DHT22;34309;47.260;2.796;2024-02-14T10:39:14;19.10;25.40
48515;DHT22;34309;47.260;2.796;2024-02-14T10:41:48;19.10;25.20
48515;DHT22;34309;47.260;2.796;2024-02-14T10:44:22;19.10;25.40
48515;DHT22;34309;47.260;2.796;2024-02-14T10:47:00;19.10;25.60
48515;DHT22;34309;47.260;2.796;2024-02-14T10:49:37;19.10;25.50
48515;DHT22;34309;47.260;2.796;2024-02-14T10:52:13;19.20;25.50
48515;DHT22;34309;47.260;2.796;2024-02-14T10:54:54;19.20;25.60
48515;DHT22;34309;47.260;2.796;2024-02-14T10:57:30;19.10;25.70
48515;DHT22;34309;47.260;2.796;2024-02-14T11:00:07;19.10;25.60
48515;DHT22;34309;47.260;2.796;2024-02-14T11:02:42;19.10;25.70
48515;DHT22;34309;47.260;2.796;2024-02-14T11:05:19;19.10;25.70
48515;DHT22;34309;47.260;2.796;2024-02-14T11:07:56;19.10;25.60
48515;DHT22;34309;47.260;2.796;2024-02-14T11:10:37;19.20;25.70
48515;DHT22;34309;47.260;2.796;2024-02-14T11:13:13;19.10;25.60
48515;DHT22;34309;47.260;2.796;2024-02-14T11:15:51;19.10;25.60
48515;DHT22;34309;47.260;2.796;2024-02-14T11:18:27;19.10;25.60
48515;DHT22;34309;47.260;2.796;2024-02-14T11:21:04;19.10;25.70
48515;DHT22;34309;47.260;2.796;2024-02-14T11:23:33;19.20;25.70
48515;DHT22;34309;47.260;2.796;2024-02-14T11:26:15;19.20;25.70
48515;DHT22;34309;47.260;2.796;2024-02-14T11:28:49;19.20;25.80
48515;DHT22;34309;47.260;2.796;2024-02-14T11:31:33;19.20;25.90
48515;DHT22;34309;47.260;2.796;2024-02-14T11:34:07;19.20;25.80
48515;DHT22;34309;47.260;2.796;2024-02-14T11:36:45;19.20;25.90
48515;DHT22;34309;47.260;2.796;2024-02-14T11:39:20;19.10;25.90
48515;DHT22;34309;47.260;2.796;2024-02-14T11:41:57;19.10;26.00
48515;DHT22;34309;47.260;2.796;2024-02-14T11:44:32;19.20;26.10
48515;DHT22;34309;47.260;2.796;2024-02-14T11:47:07;19.20;26.10
48515;DHT22;34309;47.260;2.796;2024-02-14T11:49:41;19.20;26.10
48515;DHT22;34309;47.260;2.796;2024-02-14T11:52:15;19.20;26.10
48515;DHT22;34309;47.260;2.796;2024-02-14T11:54:49;19.10;26.00
48515;DHT22;34309;47.260;2.796;2024-02-14T11:57:25;19.20;26.30
48515;DHT22;34309;47.260;2.796;2024-02-14T11:59:59;19.20;26.20
48515;DHT22;34309;47.260;2.796;2024-02-14T12:02:33;19.20;26.10
48515;DHT22;34309;47.260;2.796;2024-02-14T12:05:08;19.20;26.10
48515;DHT22;34309;47.260;2.796;2024-02-14T12:07:42;19.20;26.10
48515;DHT22;34309;47.260;2.796;2024-02-14T12:10:16;19.20;26.20
48515;DHT22;34309;47.260;2.796;2024-02-14T12:12:52;19.20;26.40
48515;DHT22;34309;47.260;2.796;2024-02-14T12:15:26;19.20;26.20
48515;DHT22;34309;47.260;2.796;2024-02-14T12:18:00;19.20;26.10
48515;DHT22;34309;47.260;2.796;2024-02-14T12:20:34;19.20;26.20
48515;DHT22;34309;47.260;2.796;2024-02-14T12:23:14;19.20;26.10
48515;DHT22;34309;47.260;2.796;2024-02-14T12:25:49;19.20;26.20
48515;DHT22;34309;47.260;2.796;2024-02-14T12:28:24;19.20;26.30
48515;DHT22;34309;47.260;2.796;2024-02-14T12:30:59;19.20;26.20
48515;DHT22;34309;47.260;2.796;2024-02-14T12:33:33;19.20;26.30
48515;DHT22;34309;47.260;2.796;2024-02-14T12:36:08;19.20;26.10
48515;DHT22;34309;47.260;2.796;2024-02-14T12:38:44;19.20;26.20
48515;DHT22;34309;47.260;2.796;2024-02-14T12:41:18;19.20;26.20
48515;DHT22;34309;47.260;2.796;2024-02-14T12:43:53;19.20;26.20
48515;DHT22;34309;47.260;2.796;2024-02-14T12:46:28;19.20;26.30
48515;DHT22;34309;47.260;2.796;2024-02-14T12:49:02;19.20;26.30
48515;DHT22;34309;47.260;2.796;2024-02-14T12:51:35;19.20;26.10
48515;DHT22;34309;47.260;2.796;2024-02-14T12:54:10;19.20;26.30
48515;DHT22;34309;47.260;2.796;2024-02-14T12:56:46;19.20;26.20
48515;DHT22;34309;47.260;2.796;2024-02-14T12:59:21;19.20;26.20
48515;DHT22;34309;47.260;2.796;2024-02-14T13:01:55;19.20;26.30
48515;DHT22;34309;47.260;2.796;2024-02-14T13:04:28;19.20;26.80
48515;DHT22;34309;47.260;2.796;2024-02-14T13:07:03;19.20;26.20
48515;DHT22;34309;47.260;2.796;2024-02-14T13:09:32;19.20;26.20
48515;DHT22;34309;47.260;2.796;2024-02-14T13:12:06;19.20;26.50
48515;DHT22;34309;47.260;2.796;2024-02-14T13:14:43;19.20;26.40
48515;DHT22;34309;47.260;2.796;2024-02-14T13:17:17;19.20;26.20
48515;DHT22;34309;47.260;2.796;2024-02-14T13:19:51;19.20;26.30
48515;DHT22;34309;47.260;2.796;2024-02-14T13:22:25;19.20;26.20
48515;DHT22;34309;47.260;2.796;2024-02-14T13:24:57;19.20;26.20
48515;DHT22;34309;47.260;2.796;2024-02-14T13:27:32;19.30;26.30
48515;DHT22;34309;47.260;2.796;2024-02-14T13:30:09;19.20;26.80
48515;DHT22;34309;47.260;2.796;2024-02-14T13:32:38;19.20;26.30
48515;DHT22;34309;47.260;2.796;2024-02-14T13:35:11;19.20;26.20
48515;DHT22;34309;47.260;2.796;2024-02-14T13:37:40;19.20;26.30
48515;DHT22;34309;47.260;2.796;2024-02-14T13:40:10;19.20;26.40
48515;DHT22;34309;47.260;2.796;2024-02-14T13:42:44;19.20;26.40
48515;DHT22;34309;47.260;2.796;2024-02-14T13:45:19;19.10;26.40
48515;DHT22;34309;47.260;2.796;2024-02-14T13:48:02;19.20;26.50
48515;DHT22;34309;47.260;2.796;2024-02-14T13:50:37;19.20;26.50
48515;DHT22;34309;47.260;2.796;2024-02-14T13:53:11;19.20;26.40
48515;DHT22;34309;47.260;2.796;2024-02-14T13:55:46;19.20;26.50
48515;DHT22;34309;47.260;2.796;2024-02-14T13:58:19;19.20;26.50
48515;DHT22;34309;47.260;2.796;2024-02-14T14:00:54;19.20;26.50
48515;DHT22;34309;47.260;2.796;2024-02-14T14:03:28;19.20;26.60
48515;DHT22;34309;47.260;2.796;2024-02-14T14:06:05;19.20;26.40
48515;DHT22;34309;47.260;2.796;2024-02-14T14:08:40;19.20;26.50
48515;DHT22;34309;47.260;2.796;2024-02-14T14:11:13;19.20;26.60
48515;DHT22;34309;47.260;2.796;2024-02-14T14:13:47;19.20;26.70
48515;DHT22;34309;47.260;2.796;2024-02-14T14:16:22;19.20;26.70
48515;DHT22;34309;47.260;2.796;2024-02-14T14:18:56;19.20;26.80
48515;DHT22;34309;47.260;2.796;2024-02-14T14:21:31;19.20;26.70
48515;DHT22;34309;47.260;2.796;2024-02-14T14:24:05;19.20;26.70
48515;DHT22;34309;47.260;2.796;2024-02-14T14:26:38;19.20;26.80
48515;DHT22;34309;47.260;2.796;2024-02-14T14:29:12;19.20;26.70
48515;DHT22;34309;47.260;2.796;2024-02-14T14:31:47;19.20;26.80
48515;DHT22;34309;47.260;2.796;2024-02-14T14:34:21;19.20;26.90
48515;DHT22;34309;47.260;2.796;2024-02-14T14:36:55;19.20;26.80
48515;DHT22;34309;47.260;2.796;2024-02-14T14:39:29;19.20;26.70
48515;DHT22;34309;47.260;2.796;2024-02-14T14:42:03;19.20;26.80
48515;DHT22;34309;47.260;2.796;2024-02-14T14:44:37;19.20;26.80
48515;DHT22;34309;47.260;2.796;2024-02-14T14:47:08;19.20;26.70
48515;DHT22;34309;47.260;2.796;2024-02-14T14:49:43;19.20;26.80
48515;DHT22;34309;47.260;2.796;2024-02-14T14:52:12;19.20;26.70
48515;DHT22;34309;47.260;2.796;2024-02-14T14:54:46;19.20;26.90
48515;DHT22;34309;47.260;2.796;2024-02-14T14:57:20;19.20;26.80
48515;DHT22;34309;47.260;2.796;2024-02-14T14:59:54;19.20;26.70
48515;DHT22;34309;47.260;2.796;2024-02-14T15:02:29;19.20;26.70
48515;DHT22;34309;47.260;2.796;2024-02-14T15:05:04;19.20;26.70
48515;DHT22;34309;47.260;2.796;2024-02-14T15:07:38;19.20;26.70
48515;DHT22;34309;47.260;2.796;2024-02-14T15:10:11;19.20;26.80
48515;DHT22;34309;47.260;2.796;2024-02-14T15:12:46;19.20;26.70
48515;DHT22;34309;47.260;2.796;2024-02-14T15:15:20;19.20;26.70
48515;DHT22;34309;47.260;2.796;2024-02-14T15:17:57;19.20;26.60
48515;DHT22;34309;47.260;2.796;2024-02-14T15:20:31;19.20;26.60
48515;DHT22;34309;47.260;2.796;2024-02-14T15:23:00;19.20;27.10
48515;DHT22;34309;47.260;2.796;2024-02-14T15:25:34;19.20;26.80
48515;DHT22;34309;47.260;2.796;2024-02-14T15:28:09;19.20;26.60
48515;DHT22;34309;47.260;2.796;2024-02-14T15:30:46;19.20;26.60
48515;DHT22;34309;47.260;2.796;2024-02-14T15:33:39;19.20;26.70
48515;DHT22;34309;47.260;2.796;2024-02-14T15:36:08;19.20;26.80
48515;DHT22;34309;47.260;2.796;2024-02-14T15:38:43;19.20;26.70
48515;DHT22;34309;47.260;2.796;2024-02-14T15:41:17;19.20;26.80
48515;DHT22;34309;47.260;2.796;2024-02-14T15:43:51;19.20;26.80
48515;DHT22;34309;47.260;2.796;2024-02-14T15:46:28;19.20;26.80
48515;DHT22;34309;47.260;2.796;2024-02-14T15:49:03;19.20;26.80
48515;DHT22;34309;47.260;2.796;2024-02-14T15:51:37;19.20;26.80
48515;DHT22;34309;47.260;2.796;2024-02-14T15:54:12;19.20;26.80
48515;DHT22;34309;47.260;2.796;2024-02-14T15:56:46;19.20;26.80
48515;DHT22;34309;47.260;2.796;2024-02-14T15:59:20;19.20;26.80
48515;DHT22;34309;47.260;2.796;2024-02-14T16:01:53;19.20;26.80
48515;DHT22;34309;47.260;2.796;2024-02-14T16:04:24;19.20;26.60
48515;DHT22;34309;47.260;2.796;2024-02-14T16:06:58;19.20;26.70
48515;DHT22;34309;47.260;2.796;2024-02-14T16:09:31;19.20;26.60
48515;DHT22;34309;47.260;2.796;2024-02-14T16:12:06;19.20;26.50
48515;DHT22;34309;47.260;2.796;2024-02-14T16:14:42;19.20;27.20
48515;DHT22;34309;47.260;2.796;2024-02-14T16:17:16;19.20;26.60
48515;DHT22;34309;47.260;2.796;2024-02-14T16:19:51;19.20;26.60